sensor_id;sensor_type;location;lat;lon;timestamp;temperature;humidity
3994;DHT22;2011;48.238;13.948;2024-02-28T00:02:01;6.10;99.90
3994;DHT22;2011;48.238;13.948;2024-02-28T00:04:30;6.10;99.90
3994;DHT22;2011;48.238;13.948;2024-02-28T00:06:56;6.00;99.90
3994;DHT22;2011;48.238;13.948;2024-02-28T00:09:24;6.00;99.90
3994;DHT22;2011;48.238;13.948;2024-02-28T00:11:51;6.00;99.90
3994;DHT22;2011;48.238;13.948;2024-02-28T00:14:18;5.90;99.90
3994;DHT22;2011;48.238;13.948;2024-02-28T00:16:46;5.90;99.90
3994;DHT22;2011;48.238;13.948;2024-02-28T00:19:13;5.80;99.90
3994;DHT22;2011;48.238;13.948;2024-02-28T00:21:42;5.80;99.90
3994;DHT22;2011;48.238;13.948;2024-02-28T00:24:09;5.80;99.90
3994;DHT22;2011;48.238;13.948;2024-02-28T00:26:37;5.90;99.90
3994;DHT22;2011;48.238;13.948;2024-02-28T00:29:03;5.80;99.90
3994;DHT22;2011;48.238;13.948;2024-02-28T00:31:30;5.80;99.90
3994;DHT22;2011;48.238;13.948;2024-02-28T00:33:57;5.80;99.90
3994;DHT22;2011;48.238;13.948;2024-02-28T00:36:24;5.80;99.90
3994;DHT22;2011;48.238;13.948;2024-02-28T00:38:52;5.80;99.90
3994;DHT22;2011;48.238;13.948;2024-02-28T00:41:19;5.80;99.90
3994;DHT22;2011;48.238;13.948;2024-02-28T00:43:46;5.80;99.90
3994;DHT22;2011;48.238;13.948;2024-02-28T00:46:13;5.70;99.90
3994;DHT22;2011;48.238;13.948;2024-02-28T00:48:40;5.70;99.90
3994;DHT22;2011;48.238;13.948;2024-02-28T00:51:07;5.70;99.90
3994;DHT22;2011;48.238;13.948;2024-02-28T00:53:34;5.70;99.90
3994;DHT22;2011;48.238;13.948;2024-02-28T00:56:03;5.70;99.90
3994;DHT22;2011;48.238;13.948;2024-02-28T00:58:30;5.60;99.90
3994;DHT22;2011;48.238;13.948;2024-02-28T01:00:57;5.60;99.90
3994;DHT22;2011;48.238;13.948;2024-02-28T01:03:24;5.60;99.90
3994;DHT22;2011;48.238;13.948;2024-02-28T01:05:51;5.60;99.90
3994;DHT22;2011;48.238;13.948;2024-02-28T01:08:18;5.50;99.90
3994;DHT22;2011;48.238;13.948;2024-02-28T01:10:45;5.50;99.90
3994;DHT22;2011;48.238;13.948;2024-02-28T01:13:13;5.50;99.90
3994;DHT22;2011;48.238;13.948;2024-02-28T01:15:40;5.50;99.90
3994;DHT22;2011;48.238;13.948;2024-02-28T01:18:08;5.50;99.90
3994;DHT22;2011;48.238;13.948;2024-02-28T01:20:35;5.50;99.90
3994;DHT22;2011;48.238;13.948;2024-02-28T01:23:02;5.40;99.90
3994;DHT22;2011;48.238;13.948;2024-02-28T01:25:29;5.40;99.90
3994;DHT22;2011;48.238;13.948;2024-02-28T01:27:56;5.40;99.90
3994;DHT22;2011;48.238;13.948;2024-02-28T01:30:25;5.30;99.90
3994;DHT22;2011;48.238;13.948;2024-02-28T01:32:51;5.20;99.90
3994;DHT22;2011;48.238;13.948;2024-02-28T01:35:18;5.20;99.90
3994;DHT22;2011;48.238;13.948;2024-02-28T01:37:45;5.10;99.90
3994;DHT22;2011;48.238;13.948;2024-02-28T01:40:13;5.10;99.90
3994;DHT22;2011;48.238;13.948;2024-02-28T01:42:40;5.10;99.90
3994;DHT22;2011;48.238;13.948;2024-02-28T01:45:07;5.10;99.90
3994;DHT22;2011;48.238;13.948;2024-02-28T01:47:38;5.00;99.90
3994;DHT22;2011;48.238;13.948;2024-02-28T01:50:05;5.00;99.90
3994;DHT22;2011;48.238;13.948;2024-02-28T01:52:33;4.90;99.90
3994;DHT22;2011;48.238;13.948;2024-02-28T01:55:00;4.80;99.90
3994;DHT22;2011;48.238;13.948;2024-02-28T01:57:27;4.80;99.90
3994;DHT22;2011;48.238;13.948;2024-02-28T01:59:55;4.90;99.90
3994;DHT22;2011;48.238;13.948;2024-02-28T02:02:22;4.90;99.90
3994;DHT22;2011;48.238;13.948;2024-02-28T02:04:51;4.90;99.90
3994;DHT22;2011;48.238;13.948;2024-02-28T02:07:18;4.90;99.90
3994;DHT22;2011;48.238;13.948;2024-02-28T02:09:45;4.90;99.90
3994;DHT22;2011;48.238;13.948;2024-02-28T02:12:13;4.80;99.90
3994;DHT22;2011;48.238;13.948;2024-02-28T02:14:39;4.80;99.90
3994;DHT22;2011;48.238;13.948;2024-02-28T02:17:06;4.80;99.90
3994;DHT22;2011;48.238;13.948;2024-02-28T02:19:34;4.80;99.90
3994;DHT22;2011;48.238;13.948;2024-02-28T02:22:04;4.80;99.90
3994;DHT22;2011;48.238;13.948;2024-02-28T02:24:33;4.70;99.90
3994;DHT22;2011;48.238;13.948;2024-02-28T02:27:02;4.80;99.90
3994;DHT22;2011;48.238;13.948;2024-02-28T02:29:30;4.70;99.90
3994;DHT22;2011;48.238;13.948;2024-02-28T02:31:57;4.70;99.90
3994;DHT22;2011;48.238;13.948;2024-02-28T02:34:24;4.80;99.90
3994;DHT22;2011;48.238;13.948;2024-02-28T02:36:51;4.80;99.90
3994;DHT22;2011;48.238;13.948;2024-02-28T02:39:17;4.80;99.90
3994;DHT22;2011;48.238;13.948;2024-02-28T02:41:46;4.90;99.90
3994;DHT22;2011;48.238;13.948;2024-02-28T02:44:13;4.90;99.90
3994;DHT22;2011;48.238;13.948;2024-02-28T02:46:40;4.90;99.90
3994;DHT22;2011;48.238;13.948;2024-02-28T02:49:06;4.90;99.90
3994;DHT22;2011;48.238;13.948;2024-02-28T02:51:33;4.80;99.90
3994;DHT22;2011;48.238;13.948;2024-02-28T02:54:00;4.80;99.90
3994;DHT22;2011;48.238;13.948;2024-02-28T02:56:27;4.80;99.90
3994;DHT22;2011;48.238;13.948;2024-02-28T02:58:55;4.80;99.90
3994;DHT22;2011;48.238;13.948;2024-02-28T03:01:22;4.90;99.90
3994;DHT22;2011;48.238;13.948;2024-02-28T03:03:49;4.90;99.90
3994;DHT22;2011;48.238;13.948;2024-02-28T03:06:16;4.90;99.90
3994;DHT22;2011;48.238;13.948;2024-02-28T03:08:43;4.90;99.90
3994;DHT22;2011;48.238;13.948;2024-02-28T03:11:10;4.80;99.90
3994;DHT22;2011;48.238;13.948;2024-02-28T03:13:37;4.80;99.90
3994;DHT22;2011;48.238;13.948;2024-02-28T03:16:06;4.80;99.90
3994;DHT22;2011;48.238;13.948;2024-02-28T03:18:33;4.80;99.90
3994;DHT22;2011;48.238;13.948;2024-02-28T03:21:00;4.80;99.90
3994;DHT22;2011;48.238;13.948;2024-02-28T03:23:27;4.80;99.90
3994;DHT22;2011;48.238;13.948;2024-02-28T03:25:54;4.80;99.90
3994;DHT22;2011;48.238;13.948;2024-02-28T03:28:21;4.80;99.90
3994;DHT22;2011;48.238;13.948;2024-02-28T03:30:48;4.80;99.90
3994;DHT22;2011;48.238;13.948;2024-02-28T03:33:16;4.80;99.90
3994;DHT22;2011;48.238;13.948;2024-02-28T03:35:43;4.80;99.90
3994;DHT22;2011;48.238;13.948;2024-02-28T03:38:10;4.80;99.90
3994;DHT22;2011;48.238;13.948;2024-02-28T03:40:37;4.70;99.90
3994;DHT22;2011;48.238;13.948;2024-02-28T03:43:04;4.70;99.90
3994;DHT22;2011;48.238;13.948;2024-02-28T03:45:36;4.70;99.90
3994;DHT22;2011;48.238;13.948;2024-02-28T03:48:04;4.80;99.90
3994;DHT22;2011;48.238;13.948;2024-02-28T03:50:32;4.70;99.90
3994;DHT22;2011;48.238;13.948;2024-02-28T03:52:59;4.70;99.90
3994;DHT22;2011;48.238;13.948;2024-02-28T03:55:26;4.70;99.90
3994;DHT22;2011;48.238;13.948;2024-02-28T03:57:53;4.80;99.90
3994;DHT22;2011;48.238;13.948;2024-02-28T04:00:20;4.80;99.90
3994;DHT22;2011;48.238;13.948;2024-02-28T04:02:47;4.70;99.90
3994;DHT22;2011;48.238;13.948;2024-02-28T04:05:14;4.70;99.90
3994;DHT22;2011;48.238;13.948;2024-02-28T04:07:44;4.70;99.90
3994;DHT22;2011;48.238;13.948;2024-02-28T04:10:11;4.70;99.90
3994;DHT22;2011;48.238;13.948;2024-02-28T04:12:38;4.60;99.90
3994;DHT22;2011;48.238;13.948;2024-02-28T04:15:05;4.60;99.90
3994;DHT22;2011;48.238;13.948;2024-02-28T04:17:32;4.60;99.90
3994;DHT22;2011;48.238;13.948;2024-02-28T04:19:59;4.60;99.90
3994;DHT22;2011;48.238;13.948;2024-02-28T04:22:30;4.70;99.90
3994;DHT22;2011;48.238;13.948;2024-02-28T04:24:58;4.70;99.90
3994;DHT22;2011;48.238;13.948;2024-02-28T04:27:25;4.70;99.90
3994;DHT22;2011;48.238;13.948;2024-02-28T04:29:52;4.80;99.90
3994;DHT22;2011;48.238;13.948;2024-02-28T04:32:18;4.70;99.90
3994;DHT22;2011;48.238;13.948;2024-02-28T04:34:45;4.70;99.90
3994;DHT22;2011;48.238;13.948;2024-02-28T04:37:12;4.70;99.90
3994;DHT22;2011;48.238;13.948;2024-02-28T04:39:40;4.70;99.90
3994;DHT22;2011;48.238;13.948;2024-02-28T04:42:08;4.70;99.90
3994;DHT22;2011;48.238;13.948;2024-02-28T04:44:35;4.70;99.90
3994;DHT22;2011;48.238;13.948;2024-02-28T04:47:02;4.70;99.90
3994;DHT22;2011;48.238;13.948;2024-02-28T04:49:30;4.70;99.90
3994;DHT22;2011;48.238;13.948;2024-02-28T04:51:56;4.60;99.90
3994;DHT22;2011;48.238;13.948;2024-02-28T04:54:24;4.60;99.90
3994;DHT22;2011;48.238;13.948;2024-02-28T04:56:51;4.70;99.90
3994;DHT22;2011;48.238;13.948;2024-02-28T04:59:19;4.70;99.90
3994;DHT22;2011;48.238;13.948;2024-02-28T05:01:46;4.80;99.90
3994;DHT22;2011;48.238;13.948;2024-02-28T05:04:13;4.80;99.90
3994;DHT22;2011;48.238;13.948;2024-02-28T05:06:41;4.80;99.90
3994;DHT22;2011;48.238;13.948;2024-02-28T05:09:07;4.90;99.90
3994;DHT22;2011;48.238;13.948;2024-02-28T05:11:34;5.00;99.90
3994;DHT22;2011;48.238;13.948;2024-02-28T05:14:01;5.00;99.90
3994;DHT22;2011;48.238;13.948;2024-02-28T05:16:29;5.00;99.90
3994;DHT22;2011;48.238;13.948;2024-02-28T05:18:57;5.00;99.90
3994;DHT22;2011;48.238;13.948;2024-02-28T05:21:24;5.00;99.90
3994;DHT22;2011;48.238;13.948;2024-02-28T05:23:51;5.00;99.90
3994;DHT22;2011;48.238;13.948;2024-02-28T05:26:18;5.00;99.90
3994;DHT22;2011;48.238;13.948;2024-02-28T05:28:45;5.00;99.90
3994;DHT22;2011;48.238;13.948;2024-02-28T05:31:22;5.00;99.90
3994;DHT22;2011;48.238;13.948;2024-02-28T05:33:52;5.00;99.90
3994;DHT22;2011;48.238;13.948;2024-02-28T05:36:19;5.00;99.90
3994;DHT22;2011;48.238;13.948;2024-02-28T05:38:47;5.10;99.90
3994;DHT22;2011;48.238;13.948;2024-02-28T05:41:16;5.20;99.90
3994;DHT22;2011;48.238;13.948;2024-02-28T05:43:43;5.20;99.90
3994;DHT22;2011;48.238;13.948;2024-02-28T05:46:11;5.10;99.90
3994;DHT22;2011;48.238;13.948;2024-02-28T05:48:40;5.20;99.90
3994;DHT22;2011;48.238;13.948;2024-02-28T05:51:10;5.10;99.90
3994;DHT22;2011;48.238;13.948;2024-02-28T05:53:37;5.20;99.90
3994;DHT22;2011;48.238;13.948;2024-02-28T05:56:05;5.20;99.90
3994;DHT22;2011;48.238;13.948;2024-02-28T05:58:39;5.20;99.90
3994;DHT22;2011;48.238;13.948;2024-02-28T06:01:05;5.20;99.90
3994;DHT22;2011;48.238;13.948;2024-02-28T06:03:33;5.30;99.90
3994;DHT22;2011;48.238;13.948;2024-02-28T06:06:00;5.30;99.90
3994;DHT22;2011;48.238;13.948;2024-02-28T06:08:32;5.20;99.90
3994;DHT22;2011;48.238;13.948;2024-02-28T06:10:59;5.30;99.90
3994;DHT22;2011;48.238;13.948;2024-02-28T06:13:27;5.30;99.90
3994;DHT22;2011;48.238;13.948;2024-02-28T06:15:54;5.30;99.90
3994;DHT22;2011;48.238;13.948;2024-02-28T06:18:21;5.30;99.90
3994;DHT22;2011;48.238;13.948;2024-02-28T06:20:52;5.40;99.90
3994;DHT22;2011;48.238;13.948;2024-02-28T06:23:19;5.40;99.90
3994;DHT22;2011;48.238;13.948;2024-02-28T06:25:47;5.40;99.90
3994;DHT22;2011;48.238;13.948;2024-02-28T06:28:14;5.40;99.90
3994;DHT22;2011;48.238;13.948;2024-02-28T06:30:42;5.40;99.90
3994;DHT22;2011;48.238;13.948;2024-02-28T06:33:09;5.40;99.90
3994;DHT22;2011;48.238;13.948;2024-02-28T06:35:36;5.40;99.90
3994;DHT22;2011;48.238;13.948;2024-02-28T06:38:03;5.40;99.90
3994;DHT22;2011;48.238;13.948;2024-02-28T06:40:30;5.40;99.90
3994;DHT22;2011;48.238;13.948;2024-02-28T06:42:59;5.40;99.90
3994;DHT22;2011;48.238;13.948;2024-02-28T06:45:26;5.40;99.90
3994;DHT22;2011;48.238;13.948;2024-02-28T06:47:53;5.40;99.90
3994;DHT22;2011;48.238;13.948;2024-02-28T06:50:20;5.40;99.90
3994;DHT22;2011;48.238;13.948;2024-02-28T06:52:47;5.40;99.90
3994;DHT22;2011;48.238;13.948;2024-02-28T06:55:14;5.40;99.90
3994;DHT22;2011;48.238;13.948;2024-02-28T06:57:41;5.50;99.90
3994;DHT22;2011;48.238;13.948;2024-02-28T07:00:11;5.50;99.90
3994;DHT22;2011;48.238;13.948;2024-02-28T07:02:38;5.60;99.90
3994;DHT22;2011;48.238;13.948;2024-02-28T07:05:05;5.60;99.90
3994;DHT22;2011;48.238;13.948;2024-02-28T07:07:32;5.60;99.90
3994;DHT22;2011;48.238;13.948;2024-02-28T07:10:00;5.70;99.90
3994;DHT22;2011;48.238;13.948;2024-02-28T07:12:29;5.70;99.90
3994;DHT22;2011;48.238;13.948;2024-02-28T07:14:56;5.70;99.90
3994;DHT22;2011;48.238;13.948;2024-02-28T07:17:25;5.80;99.90
3994;DHT22;2011;48.238;13.948;2024-02-28T07:19:52;5.80;99.90
3994;DHT22;2011;48.238;13.948;2024-02-28T07:22:19;5.90;99.90
3994;DHT22;2011;48.238;13.948;2024-02-28T07:24:47;5.90;99.90
3994;DHT22;2011;48.238;13.948;2024-02-28T07:27:14;5.90;99.90
3994;DHT22;2011;48.238;13.948;2024-02-28T07:29:41;6.00;99.90
3994;DHT22;2011;48.238;13.948;2024-02-28T07:32:08;6.00;99.90
3994;DHT22;2011;48.238;13.948;2024-02-28T07:34:36;6.00;99.90
3994;DHT22;2011;48.238;13.948;2024-02-28T07:37:04;6.00;99.90
3994;DHT22;2011;48.238;13.948;2024-02-28T07:39:31;6.00;99.90
3994;DHT22;2011;48.238;13.948;2024-02-28T07:41:58;6.10;99.90
3994;DHT22;2011;48.238;13.948;2024-02-28T07:44:25;6.10;99.90
3994;DHT22;2011;48.238;13.948;2024-02-28T07:46:56;6.10;99.90
3994;DHT22;2011;48.238;13.948;2024-02-28T07:49:24;6.20;99.90
3994;DHT22;2011;48.238;13.948;2024-02-28T07:51:53;6.20;99.90
3994;DHT22;2011;48.238;13.948;2024-02-28T07:54:20;6.30;99.90
3994;DHT22;2011;48.238;13.948;2024-02-28T07:56:48;6.30;99.90
3994;DHT22;2011;48.238;13.948;2024-02-28T07:59:15;6.30;99.90
3994;DHT22;2011;48.238;13.948;2024-02-28T08:01:42;6.40;99.90
3994;DHT22;2011;48.238;13.948;2024-02-28T08:04:09;6.40;99.90
3994;DHT22;2011;48.238;13.948;2024-02-28T08:06:36;6.40;99.90
3994;DHT22;2011;48.238;13.948;2024-02-28T08:09:04;6.40;99.90
3994;DHT22;2011;48.238;13.948;2024-02-28T08:11:31;6.40;99.90
3994;DHT22;2011;48.238;13.948;2024-02-28T08:13:58;6.40;99.90
3994;DHT22;2011;48.238;13.948;2024-02-28T08:16:24;6.40;99.90
3994;DHT22;2011;48.238;13.948;2024-02-28T08:18:51;6.40;99.90
3994;DHT22;2011;48.238;13.948;2024-02-28T08:21:18;6.50;99.90
3994;DHT22;2011;48.238;13.948;2024-02-28T08:23:45;6.50;99.90
3994;DHT22;2011;48.238;13.948;2024-02-28T08:26:14;6.60;99.90
3994;DHT22;2011;48.238;13.948;2024-02-28T08:28:41;6.60;99.90
3994;DHT22;2011;48.238;13.948;2024-02-28T08:31:08;6.60;99.90
3994;DHT22;2011;48.238;13.948;2024-02-28T08:33:35;6.70;99.90
3994;DHT22;2011;48.238;13.948;2024-02-28T08:36:02;6.70;99.90
3994;DHT22;2011;48.238;13.948;2024-02-28T08:38:29;6.80;99.90
3994;DHT22;2011;48.238;13.948;2024-02-28T08:40:56;6.90;99.90
3994;DHT22;2011;48.238;13.948;2024-02-28T08:43:24;6.90;99.90
3994;DHT22;2011;48.238;13.948;2024-02-28T08:45:51;6.90;99.90
3994;DHT22;2011;48.238;13.948;2024-02-28T08:48:19;7.00;99.90
3994;DHT22;2011;48.238;13.948;2024-02-28T08:50:46;7.10;99.90
3994;DHT22;2011;48.238;13.948;2024-02-28T08:53:13;7.10;99.90
3994;DHT22;2011;48.238;13.948;2024-02-28T08:55:40;7.00;99.90
3994;DHT22;2011;48.238;13.948;2024-02-28T08:58:07;6.90;99.90
3994;DHT22;2011;48.238;13.948;2024-02-28T09:00:35;6.80;99.90
3994;DHT22;2011;48.238;13.948;2024-02-28T09:03:04;6.80;99.90
3994;DHT22;2011;48.238;13.948;2024-02-28T09:05:31;6.90;99.90
3994;DHT22;2011;48.238;13.948;2024-02-28T09:07:58;6.90;99.90
3994;DHT22;2011;48.238;13.948;2024-02-28T09:10:25;6.90;99.90
3994;DHT22;2011;48.238;13.948;2024-02-28T09:12:52;7.00;99.90
3994;DHT22;2011;48.238;13.948;2024-02-28T09:15:20;7.10;99.90
3994;DHT22;2011;48.238;13.948;2024-02-28T09:17:48;7.10;99.90
3994;DHT22;2011;48.238;13.948;2024-02-28T09:20:15;7.10;99.90
3994;DHT22;2011;48.238;13.948;2024-02-28T09:22:42;7.10;99.90
3994;DHT22;2011;48.238;13.948;2024-02-28T09:25:10;7.10;99.90
3994;DHT22;2011;48.238;13.948;2024-02-28T09:27:37;7.20;99.90
3994;DHT22;2011;48.238;13.948;2024-02-28T09:30:05;7.20;99.90
3994;DHT22;2011;48.238;13.948;2024-02-28T09:32:32;7.20;99.90
3994;DHT22;2011;48.238;13.948;2024-02-28T09:35:02;7.30;99.90
3994;DHT22;2011;48.238;13.948;2024-02-28T09:37:29;7.40;99.90
3994;DHT22;2011;48.238;13.948;2024-02-28T09:39:57;7.40;99.90
3994;DHT22;2011;48.238;13.948;2024-02-28T09:42:24;7.40;99.90
3994;DHT22;2011;48.238;13.948;2024-02-28T09:44:51;7.40;99.90
3994;DHT22;2011;48.238;13.948;2024-02-28T09:47:18;7.40;99.90
3994;DHT22;2011;48.238;13.948;2024-02-28T09:49:45;7.50;99.90
3994;DHT22;2011;48.238;13.948;2024-02-28T09:52:18;7.50;99.90
3994;DHT22;2011;48.238;13.948;2024-02-28T09:54:45;7.50;99.90
3994;DHT22;2011;48.238;13.948;2024-02-28T09:57:12;7.60;99.90
3994;DHT22;2011;48.238;13.948;2024-02-28T09:59:40;7.70;99.90
3994;DHT22;2011;48.238;13.948;2024-02-28T10:02:10;7.70;99.90
3994;DHT22;2011;48.238;13.948;2024-02-28T10:04:37;7.70;99.90
3994;DHT22;2011;48.238;13.948;2024-02-28T10:07:12;7.80;99.90
3994;DHT22;2011;48.238;13.948;2024-02-28T10:09:41;7.90;99.90
3994;DHT22;2011;48.238;13.948;2024-02-28T10:12:09;7.90;99.90
3994;DHT22;2011;48.238;13.948;2024-02-28T10:14:36;7.80;99.90
3994;DHT22;2011;48.238;13.948;2024-02-28T10:17:04;7.90;99.90
3994;DHT22;2011;48.238;13.948;2024-02-28T10:19:31;7.90;99.90
3994;DHT22;2011;48.238;13.948;2024-02-28T10:21:59;8.00;99.90
3994;DHT22;2011;48.238;13.948;2024-02-28T10:24:26;8.00;99.90
3994;DHT22;2011;48.238;13.948;2024-02-28T10:26:54;8.10;99.90
3994;DHT22;2011;48.238;13.948;2024-02-28T10:29:22;8.10;99.90
3994;DHT22;2011;48.238;13.948;2024-02-28T10:31:50;8.10;99.90
3994;DHT22;2011;48.238;13.948;2024-02-28T10:34:17;8.10;99.90
3994;DHT22;2011;48.238;13.948;2024-02-28T10:36:45;8.00;99.90
3994;DHT22;2011;48.238;13.948;2024-02-28T10:39:14;8.10;99.90
3994;DHT22;2011;48.238;13.948;2024-02-28T10:41:41;8.10;99.90
3994;DHT22;2011;48.238;13.948;2024-02-28T10:44:12;8.10;99.90
3994;DHT22;2011;48.238;13.948;2024-02-28T10:46:40;8.10;99.90
3994;DHT22;2011;48.238;13.948;2024-02-28T10:49:09;8.00;99.90
3994;DHT22;2011;48.238;13.948;2024-02-28T10:51:36;8.00;99.90
3994;DHT22;2011;48.238;13.948;2024-02-28T10:54:08;7.90;99.90
3994;DHT22;2011;48.238;13.948;2024-02-28T10:56:37;7.90;99.90
3994;DHT22;2011;48.238;13.948;2024-02-28T10:59:06;7.90;99.90
3994;DHT22;2011;48.238;13.948;2024-02-28T11:01:36;7.90;99.90
3994;DHT22;2011;48.238;13.948;2024-02-28T11:04:04;7.90;99.90
3994;DHT22;2011;48.238;13.948;2024-02-28T11:06:32;7.90;99.90
3994;DHT22;2011;48.238;13.948;2024-02-28T11:09:00;7.80;99.90
3994;DHT22;2011;48.238;13.948;2024-02-28T11:11:30;7.80;99.90
3994;DHT22;2011;48.238;13.948;2024-02-28T11:13:58;7.90;99.90
3994;DHT22;2011;48.238;13.948;2024-02-28T11:16:27;7.90;99.90
3994;DHT22;2011;48.238;13.948;2024-02-28T11:18:56;7.90;99.90
3994;DHT22;2011;48.238;13.948;2024-02-28T11:21:24;7.90;99.90
3994;DHT22;2011;48.238;13.948;2024-02-28T11:23:57;8.00;99.90
3994;DHT22;2011;48.238;13.948;2024-02-28T11:26:25;8.10;99.90
3994;DHT22;2011;48.238;13.948;2024-02-28T11:28:53;8.10;99.90
3994;DHT22;2011;48.238;13.948;2024-02-28T11:31:21;8.10;99.90
3994;DHT22;2011;48.238;13.948;2024-02-28T11:33:48;8.10;99.90
3994;DHT22;2011;48.238;13.948;2024-02-28T11:36:16;8.10;99.90
3994;DHT22;2011;48.238;13.948;2024-02-28T11:38:43;8.10;99.90
3994;DHT22;2011;48.238;13.948;2024-02-28T11:41:11;8.10;99.90
3994;DHT22;2011;48.238;13.948;2024-02-28T11:43:38;8.10;99.90
3994;DHT22;2011;48.238;13.948;2024-02-28T11:46:08;8.10;99.90
3994;DHT22;2011;48.238;13.948;2024-02-28T11:48:36;8.10;99.90
3994;DHT22;2011;48.238;13.948;2024-02-28T11:51:03;8.10;99.90
3994;DHT22;2011;48.238;13.948;2024-02-28T11:53:31;8.20;99.90
3994;DHT22;2011;48.238;13.948;2024-02-28T11:55:58;8.10;99.90
3994;DHT22;2011;48.238;13.948;2024-02-28T11:58:25;8.10;99.90
3994;DHT22;2011;48.238;13.948;2024-02-28T12:00:52;8.20;99.90
3994;DHT22;2011;48.238;13.948;2024-02-28T12:03:23;8.30;99.90
3994;DHT22;2011;48.238;13.948;2024-02-28T12:05:51;8.30;99.90
3994;DHT22;2011;48.238;13.948;2024-02-28T12:08:18;8.40;99.90
3994;DHT22;2011;48.238;13.948;2024-02-28T12:10:47;8.40;99.90
3994;DHT22;2011;48.238;13.948;2024-02-28T12:13:18;8.40;99.90
3994;DHT22;2011;48.238;13.948;2024-02-28T12:15:45;8.40;99.90
3994;DHT22;2011;48.238;13.948;2024-02-28T12:18:15;8.40;99.90
3994;DHT22;2011;48.238;13.948;2024-02-28T12:20:42;8.50;99.90
3994;DHT22;2011;48.238;13.948;2024-02-28T12:23:09;8.30;99.90
3994;DHT22;2011;48.238;13.948;2024-02-28T12:25:36;8.30;99.90
3994;DHT22;2011;48.238;13.948;2024-02-28T12:28:05;8.30;99.90
3994;DHT22;2011;48.238;13.948;2024-02-28T12:30:40;8.30;99.90
3994;DHT22;2011;48.238;13.948;2024-02-28T12:33:07;8.30;99.90
3994;DHT22;2011;48.238;13.948;2024-02-28T12:35:34;8.40;99.90
3994;DHT22;2011;48.238;13.948;2024-02-28T12:38:02;8.40;99.90
3994;DHT22;2011;48.238;13.948;2024-02-28T12:40:29;8.40;99.90
3994;DHT22;2011;48.238;13.948;2024-02-28T12:42:58;8.40;99.90
3994;DHT22;2011;48.238;13.948;2024-02-28T12:45:26;8.50;99.90
3994;DHT22;2011;48.238;13.948;2024-02-28T12:47:53;8.40;99.90
3994;DHT22;2011;48.238;13.948;2024-02-28T12:50:22;8.30;99.90
3994;DHT22;2011;48.238;13.948;2024-02-28T12:52:50;8.40;99.90
3994;DHT22;2011;48.238;13.948;2024-02-28T12:55:19;8.40;99.90
3994;DHT22;2011;48.238;13.948;2024-02-28T12:57:47;8.40;99.90
3994;DHT22;2011;48.238;13.948;2024-02-28T13:00:14;8.30;99.90
3994;DHT22;2011;48.238;13.948;2024-02-28T13:02:44;8.30;99.90
3994;DHT22;2011;48.238;13.948;2024-02-28T13:05:11;8.30;99.90
3994;DHT22;2011;48.238;13.948;2024-02-28T13:07:38;8.30;99.90
3994;DHT22;2011;48.238;13.948;2024-02-28T13:10:07;8.20;99.90
3994;DHT22;2011;48.238;13.948;2024-02-28T13:12:34;8.20;99.90
3994;DHT22;2011;48.238;13.948;2024-02-28T13:15:01;8.20;99.90
3994;DHT22;2011;48.238;13.948;2024-02-28T13:17:28;8.20;99.90
3994;DHT22;2011;48.238;13.948;2024-02-28T13:19:57;8.20;99.90
3994;DHT22;2011;48.238;13.948;2024-02-28T13:22:24;8.20;99.90
3994;DHT22;2011;48.238;13.948;2024-02-28T13:24:51;8.20;99.90
3994;DHT22;2011;48.238;13.948;2024-02-28T13:27:18;8.20;99.90
3994;DHT22;2011;48.238;13.948;2024-02-28T13:29:45;8.30;99.90
3994;DHT22;2011;48.238;13.948;2024-02-28T13:32:12;8.20;99.90
3994;DHT22;2011;48.238;13.948;2024-02-28T13:34:39;8.20;99.90
3994;DHT22;2011;48.238;13.948;2024-02-28T13:37:08;8.20;99.90
3994;DHT22;2011;48.238;13.948;2024-02-28T13:39:35;8.10;99.90
3994;DHT22;2011;48.238;13.948;2024-02-28T13:42:02;8.10;99.90
3994;DHT22;2011;48.238;13.948;2024-02-28T13:44:31;8.10;99.90
3994;DHT22;2011;48.238;13.948;2024-02-28T13:47:00;8.10;99.90
3994;DHT22;2011;48.238;13.948;2024-02-28T13:49:26;8.10;99.90
3994;DHT22;2011;48.238;13.948;2024-02-28T13:51:54;8.10;99.90
3994;DHT22;2011;48.238;13.948;2024-02-28T13:54:22;8.20;99.90
3994;DHT22;2011;48.238;13.948;2024-02-28T13:56:49;8.20;99.90
3994;DHT22;2011;48.238;13.948;2024-02-28T13:59:16;8.30;99.90
3994;DHT22;2011;48.238;13.948;2024-02-28T14:01:43;8.20;99.90
3994;DHT22;2011;48.238;13.948;2024-02-28T14:04:10;8.20;99.90
3994;DHT22;2011;48.238;13.948;2024-02-28T14:06:37;8.10;99.90
3994;DHT22;2011;48.238;13.948;2024-02-28T14:09:04;8.00;99.90
3994;DHT22;2011;48.238;13.948;2024-02-28T14:11:33;8.00;99.90
3994;DHT22;2011;48.238;13.948;2024-02-28T14:14:00;8.00;99.90
3994;DHT22;2011;48.238;13.948;2024-02-28T14:16:27;7.90;99.90
3994;DHT22;2011;48.238;13.948;2024-02-28T14:18:54;7.90;99.90
3994;DHT22;2011;48.238;13.948;2024-02-28T14:21:21;7.90;99.90
3994;DHT22;2011;48.238;13.948;2024-02-28T14:23:50;7.80;99.90
3994;DHT22;2011;48.238;13.948;2024-02-28T14:26:17;7.90;99.90
3994;DHT22;2011;48.238;13.948;2024-02-28T14:28:45;7.90;99.90
3994;DHT22;2011;48.238;13.948;2024-02-28T14:31:12;7.90;99.90
3994;DHT22;2011;48.238;13.948;2024-02-28T14:33:39;7.90;99.90
3994;DHT22;2011;48.238;13.948;2024-02-28T14:36:06;8.00;99.90
3994;DHT22;2011;48.238;13.948;2024-02-28T14:38:33;7.70;99.90
3994;DHT22;2011;48.238;13.948;2024-02-28T14:41:00;7.90;99.90
3994;DHT22;2011;48.238;13.948;2024-02-28T14:43:28;7.90;99.90
3994;DHT22;2011;48.238;13.948;2024-02-28T14:45:57;8.00;99.90
3994;DHT22;2011;48.238;13.948;2024-02-28T14:48:24;8.00;99.90
3994;DHT22;2011;48.238;13.948;2024-02-28T14:50:50;8.00;99.90
3994;DHT22;2011;48.238;13.948;2024-02-28T14:53:19;8.00;99.90
3994;DHT22;2011;48.238;13.948;2024-02-28T14:55:46;7.90;99.90
3994;DHT22;2011;48.238;13.948;2024-02-28T14:58:14;8.00;99.90
3994;DHT22;2011;48.238;13.948;2024-02-28T15:00:41;8.00;99.90
3994;DHT22;2011;48.238;13.948;2024-02-28T15:03:09;8.10;99.90
3994;DHT22;2011;48.238;13.948;2024-02-28T15:05:36;8.10;99.90
3994;DHT22;2011;48.238;13.948;2024-02-28T15:08:06;8.00;99.90
3994;DHT22;2011;48.238;13.948;2024-02-28T15:10:33;7.90;99.90
3994;DHT22;2011;48.238;13.948;2024-02-28T15:13:00;8.00;99.90
3994;DHT22;2011;48.238;13.948;2024-02-28T15:15:26;8.00;99.90
3994;DHT22;2011;48.238;13.948;2024-02-28T15:17:54;8.00;99.90
3994;DHT22;2011;48.238;13.948;2024-02-28T15:20:22;8.10;99.90
3994;DHT22;2011;48.238;13.948;2024-02-28T15:22:49;8.10;99.90
3994;DHT22;2011;48.238;13.948;2024-02-28T15:25:16;8.00;99.90
3994;DHT22;2011;48.238;13.948;2024-02-28T15:27:43;8.00;99.90
3994;DHT22;2011;48.238;13.948;2024-02-28T15:30:11;8.00;99.90
3994;DHT22;2011;48.238;13.948;2024-02-28T15:32:38;8.00;99.90
3994;DHT22;2011;48.238;13.948;2024-02-28T15:35:05;8.00;99.90
3994;DHT22;2011;48.238;13.948;2024-02-28T15:37:34;8.00;99.90
3994;DHT22;2011;48.238;13.948;2024-02-28T15:40:01;7.90;99.90
3994;DHT22;2011;48.238;13.948;2024-02-28T15:42:32;7.90;99.90
3994;DHT22;2011;48.238;13.948;2024-02-28T15:44:59;7.90;99.90
3994;DHT22;2011;48.238;13.948;2024-02-28T15:47:25;7.80;99.90
3994;DHT22;2011;48.238;13.948;2024-02-28T15:49:52;7.80;99.90
3994;DHT22;2011;48.238;13.948;2024-02-28T15:52:20;7.80;99.90
3994;DHT22;2011;48.238;13.948;2024-02-28T15:54:48;7.80;99.90
3994;DHT22;2011;48.238;13.948;2024-02-28T15:57:15;7.70;99.90
3994;DHT22;2011;48.238;13.948;2024-02-28T15:59:42;7.70;99.90
3994;DHT22;2011;48.238;13.948;2024-02-28T16:02:10;7.70;99.90
3994;DHT22;2011;48.238;13.948;2024-02-28T16:04:37;7.80;99.90